createdAt,value
2017-07-21T00:01:25.174Z,31.63
2017-07-21T00:03:52.139Z,31.03
2017-07-21T00:06:19.125Z,29.00
2017-07-21T00:08:46.088Z,28.97
2017-07-21T00:11:13.031Z,27.90
2017-07-21T00:13:39.984Z,26.97
2017-07-21T00:16:06.934Z,26.07
2017-07-21T00:18:33.899Z,23.67
2017-07-21T00:21:00.841Z,24.00
2017-07-21T00:23:27.811Z,21.40
2017-07-21T00:25:55.515Z,21.17
2017-07-21T00:28:22.469Z,21.50
2017-07-21T00:30:49.408Z,20.47
2017-07-21T00:33:16.380Z,22.17
2017-07-21T00:35:43.377Z,20.87
2017-07-21T00:38:10.350Z,18.60
2017-07-21T00:40:38.310Z,19.43
2017-07-21T00:43:05.279Z,20.43
2017-07-21T00:45:32.222Z,20.20
2017-07-21T00:47:59.163Z,20.10
2017-07-21T00:50:26.129Z,19.90
2017-07-21T00:52:54.035Z,21.90
2017-07-21T00:55:20.983Z,18.23
2017-07-21T00:57:47.936Z,17.97
2017-07-21T01:00:16.843Z,17.10
2017-07-21T01:02:43.781Z,16.80
2017-07-21T01:05:10.732Z,16.73
2017-07-21T01:07:37.676Z,18.50
2017-07-21T01:10:04.633Z,16.70
2017-07-21T01:12:31.598Z,16.27
2017-07-21T01:14:58.550Z,15.77
2017-07-21T01:17:25.537Z,14.23
2017-07-21T01:19:52.476Z,17.63
2017-07-21T01:22:19.453Z,17.53
2017-07-21T01:24:46.406Z,18.17
2017-07-21T01:27:13.364Z,16.20
2017-07-21T01:29:40.314Z,17.20
2017-07-21T01:32:07.267Z,18.70
2017-07-21T01:34:34.203Z,20.63
2017-07-21T01:37:01.166Z,19.40
2017-07-21T01:39:29.887Z,19.00
2017-07-21T01:41:56.850Z,19.80
2017-07-21T01:44:23.797Z,20.60
2017-07-21T01:46:50.769Z,21.87
2017-07-21T01:49:17.717Z,19.93
2017-07-21T01:51:44.688Z,19.33
2017-07-21T01:54:12.379Z,21.30
2017-07-21T01:56:39.328Z,21.10
2017-07-21T01:59:06.312Z,16.77
2017-07-21T02:01:33.263Z,12.33
2017-07-21T02:04:00.233Z,11.73
2017-07-21T02:06:27.179Z,12.00
2017-07-21T02:08:55.908Z,11.97
2017-07-21T02:11:22.844Z,11.47
2017-07-21T02:13:49.830Z,13.90
2017-07-21T02:16:16.779Z,11.50
2017-07-21T02:18:43.736Z,13.63
2017-07-21T02:21:12.445Z,13.83
2017-07-21T02:23:39.404Z,13.30
2017-07-21T02:26:06.357Z,12.77
2017-07-21T02:28:33.323Z,16.57
2017-07-21T02:31:00.267Z,13.47
2017-07-21T02:33:27.220Z,14.80
2017-07-21T02:35:54.147Z,13.23
2017-07-21T02:38:21.116Z,11.93
2017-07-21T02:40:48.059Z,12.50
2017-07-21T02:43:15.003Z,12.67
2017-07-21T02:45:41.975Z,10.03
2017-07-21T02:48:09.676Z,8.70
2017-07-21T02:50:36.641Z,7.30
2017-07-21T02:53:03.572Z,6.57
2017-07-21T02:55:30.528Z,6.43
2017-07-21T02:57:57.469Z,6.30
2017-07-21T03:00:25.452Z,4.80
2017-07-21T03:02:54.312Z,4.10
2017-07-21T03:05:21.280Z,4.30
2017-07-21T03:07:48.217Z,4.10
2017-07-21T03:10:15.182Z,4.93
2017-07-21T03:12:42.124Z,3.80
2017-07-21T03:15:09.052Z,4.27
2017-07-21T03:17:36.022Z,2.93
2017-07-21T03:20:02.966Z,3.60
2017-07-21T03:22:41.916Z,3.77
2017-07-21T03:25:08.864Z,3.60
2017-07-21T03:27:36.559Z,3.73
2017-07-21T03:30:03.525Z,5.03
2017-07-21T03:32:30.471Z,5.13
2017-07-21T03:34:57.444Z,3.27
2017-07-21T03:37:25.148Z,3.37
2017-07-21T03:39:52.097Z,3.10
2017-07-21T03:42:19.063Z,3.33
2017-07-21T03:44:46.006Z,3.73
2017-07-21T03:47:12.982Z,3.40
2017-07-21T03:49:39.926Z,3.13
2017-07-21T03:52:06.884Z,3.70
2017-07-21T03:54:34.596Z,2.90
2017-07-21T03:57:01.538Z,2.80
2017-07-21T03:59:28.473Z,3.50
2017-07-21T04:01:55.456Z,3.97
2017-07-21T04:04:22.387Z,3.40
2017-07-21T04:06:49.344Z,2.63
2017-07-21T04:09:16.282Z,3.57
2017-07-21T04:11:43.253Z,3.57
2017-07-21T04:14:10.985Z,5.20
2017-07-21T04:16:37.920Z,4.17
2017-07-21T04:19:04.889Z,3.67
2017-07-21T04:21:31.825Z,3.47
2017-07-21T04:23:58.809Z,2.43
2017-07-21T04:26:27.533Z,2.60
2017-07-21T04:28:54.498Z,2.00
2017-07-21T04:31:21.436Z,2.07
2017-07-21T04:33:48.393Z,2.23
2017-07-21T04:36:15.316Z,2.80
2017-07-21T04:38:42.259Z,2.27
2017-07-21T04:41:09.205Z,2.37
2017-07-21T04:43:36.180Z,1.70
2017-07-21T04:46:03.107Z,2.33
2017-07-21T04:48:30.071Z,2.30
2017-07-21T04:50:57.014Z,1.97
2017-07-21T04:53:24.981Z,2.00
2017-07-21T04:55:51.951Z,2.10
2017-07-21T04:58:20.041Z,1.30
2017-07-21T05:00:46.992Z,1.53
2017-07-21T05:03:14.881Z,2.40
2017-07-21T05:05:41.829Z,2.43
2017-07-21T05:08:08.763Z,1.63
2017-07-21T05:10:35.714Z,2.10
2017-07-21T05:13:02.660Z,1.50
2017-07-21T05:15:30.638Z,2.30
2017-07-21T05:17:57.575Z,1.90
2017-07-21T05:20:24.546Z,2.60
2017-07-21T05:22:51.492Z,1.80
2017-07-21T05:25:18.462Z,1.97
2017-07-21T05:27:46.160Z,1.67
2017-07-21T05:30:13.109Z,1.73
2017-07-21T05:32:40.974Z,2.10
2017-07-21T05:35:07.948Z,2.00
2017-07-21T05:37:34.881Z,1.53
2017-07-21T05:40:01.847Z,3.20
2017-07-21T05:42:28.786Z,1.77
2017-07-21T05:44:55.744Z,2.33
2017-07-21T05:47:22.693Z,2.73
2017-07-21T05:49:49.655Z,2.03
2017-07-21T05:52:18.341Z,2.10
2017-07-21T05:54:46.140Z,1.53
2017-07-21T05:57:13.079Z,2.73
2017-07-21T05:59:41.021Z,1.60
2017-07-21T06:02:08.737Z,2.07
2017-07-21T06:04:35.710Z,2.00
2017-07-21T06:07:03.421Z,1.57
2017-07-21T06:09:30.397Z,2.03
2017-07-21T06:11:57.334Z,2.33
2017-07-21T06:14:24.295Z,1.83
2017-07-21T06:16:51.267Z,1.87
2017-07-21T06:19:19.294Z,3.80
2017-07-21T06:21:46.229Z,1.53
2017-07-21T06:24:13.194Z,2.00
2017-07-21T06:26:40.911Z,2.13
2017-07-21T06:29:07.850Z,2.97
2017-07-21T06:31:34.814Z,2.07
2017-07-21T06:34:01.768Z,1.20
2017-07-21T06:36:28.712Z,1.97
2017-07-21T06:38:56.641Z,1.97
2017-07-21T06:41:23.629Z,1.50
2017-07-21T06:43:50.581Z,2.00
2017-07-21T06:46:17.544Z,1.70
2017-07-21T06:48:46.296Z,2.63
2017-07-21T06:51:13.218Z,4.17
2017-07-21T06:53:40.157Z,1.83
2017-07-21T06:56:07.097Z,2.20
2017-07-21T06:58:34.036Z,4.10
2017-07-21T07:01:01.015Z,1.60
2017-07-21T07:03:27.970Z,1.40
2017-07-21T07:05:54.904Z,1.30
2017-07-21T07:08:21.885Z,1.63
2017-07-21T07:10:48.807Z,1.70
2017-07-21T07:13:15.725Z,2.03
2017-07-21T07:15:42.659Z,1.03
2017-07-21T07:18:09.630Z,1.60
2017-07-21T07:20:37.568Z,1.50
2017-07-21T07:23:04.513Z,2.37
2017-07-21T07:25:31.473Z,1.73
2017-07-21T07:27:58.405Z,1.70
2017-07-21T07:30:25.364Z,2.00
2017-07-21T07:32:52.302Z,1.70
2017-07-21T07:35:19.282Z,1.83
2017-07-21T07:37:46.212Z,1.50
2017-07-21T07:40:13.174Z,1.60
2017-07-21T07:42:40.117Z,1.20
2017-07-21T07:45:07.076Z,1.20
2017-07-21T07:47:34.008Z,1.70
2017-07-21T07:50:00.974Z,1.57
2017-07-21T07:52:28.672Z,2.67
2017-07-21T07:54:55.615Z,2.30
2017-07-21T07:57:22.535Z,5.13
2017-07-21T07:59:52.189Z,2.03
2017-07-21T08:02:20.059Z,1.30
2017-07-21T08:04:47.057Z,1.50
2017-07-21T08:07:15.757Z,1.40
2017-07-21T08:09:42.688Z,1.23
2017-07-21T08:12:11.325Z,2.10
2017-07-21T08:14:39.180Z,1.50
2017-07-21T08:17:06.129Z,1.50
2017-07-21T08:19:34.078Z,2.27
2017-07-21T08:22:01.056Z,1.27
2017-07-21T08:24:27.990Z,1.63
2017-07-21T08:26:54.940Z,1.80
2017-07-21T08:29:21.888Z,1.17
2017-07-21T08:31:50.792Z,2.13
2017-07-21T08:34:18.637Z,1.30
2017-07-21T08:36:46.516Z,1.30
2017-07-21T08:39:14.484Z,1.40
2017-07-21T08:41:42.486Z,1.50
2017-07-21T08:44:09.432Z,1.70
2017-07-21T08:46:36.422Z,1.53
2017-07-21T08:49:03.361Z,0.90
2017-07-21T08:51:30.322Z,1.30
2017-07-21T08:53:57.270Z,1.90
2017-07-21T08:56:24.228Z,0.93
2017-07-21T08:58:53.141Z,0.90
2017-07-21T09:01:20.091Z,1.30
2017-07-21T09:03:47.015Z,1.07
2017-07-21T09:06:14.977Z,1.30
2017-07-21T09:08:41.915Z,1.63
2017-07-21T09:11:08.888Z,1.43
2017-07-21T09:13:35.860Z,1.47
2017-07-21T09:16:02.826Z,1.17
2017-07-21T09:18:29.773Z,1.40
2017-07-21T09:20:57.772Z,0.93
2017-07-21T09:23:24.716Z,1.47
2017-07-21T09:25:51.698Z,4.37
2017-07-21T09:28:19.409Z,2.50
2017-07-21T09:30:46.398Z,2.70
2017-07-21T09:33:14.105Z,1.67
2017-07-21T09:35:41.062Z,1.43
2017-07-21T09:38:08.001Z,1.40
2017-07-21T09:40:34.975Z,1.97
2017-07-21T09:43:01.917Z,1.20
2017-07-21T09:45:28.357Z,0.90
2017-07-21T09:47:56.317Z,1.20
2017-07-21T09:50:23.275Z,1.70
2017-07-21T09:52:50.235Z,1.00
2017-07-21T09:55:17.164Z,1.17
2017-07-21T09:57:45.079Z,1.50
2017-07-21T10:00:14.037Z,1.67
2017-07-21T10:02:42.913Z,1.20
2017-07-21T10:05:09.848Z,1.07
2017-07-21T10:07:36.809Z,1.30
2017-07-21T10:10:09.498Z,1.20
2017-07-21T10:12:36.480Z,1.40
2017-07-21T10:15:03.425Z,1.80
2017-07-21T10:17:31.360Z,1.20
2017-07-21T10:19:58.290Z,1.83
2017-07-21T10:22:25.265Z,1.40
2017-07-21T10:24:52.209Z,2.13
2017-07-21T10:27:19.169Z,1.50
2017-07-21T10:29:47.108Z,1.63
2017-07-21T10:32:14.060Z,2.03
2017-07-21T10:34:41.011Z,1.70
2017-07-21T10:37:09.991Z,2.03
2017-07-21T10:39:36.934Z,1.40
2017-07-21T10:42:04.905Z,1.40
2017-07-21T10:44:31.845Z,1.27
2017-07-21T10:46:58.836Z,1.70
2017-07-21T10:49:25.777Z,1.70
2017-07-21T10:51:56.421Z,1.87
2017-07-21T10:54:24.318Z,1.80
2017-07-21T10:56:51.290Z,1.80
2017-07-21T10:59:19.191Z,1.57
2017-07-21T11:01:46.941Z,1.00
2017-07-21T11:04:15.130Z,0.90
2017-07-21T11:06:42.873Z,1.57
2017-07-21T11:09:09.813Z,1.17
2017-07-21T11:11:36.762Z,0.90
2017-07-21T11:14:03.714Z,1.47
2017-07-21T11:16:31.449Z,1.10
2017-07-21T11:18:58.388Z,1.30
2017-07-21T11:21:25.377Z,1.50
2017-07-21T11:23:55.064Z,2.90
2017-07-21T11:26:22.013Z,1.63
2017-07-21T11:28:49.965Z,1.40
2017-07-21T11:31:16.923Z,1.30
2017-07-21T11:33:43.861Z,1.20
2017-07-21T11:36:11.834Z,1.00
2017-07-21T11:38:38.815Z,0.90
2017-07-21T11:41:06.589Z,2.00
2017-07-21T11:43:34.380Z,1.50
2017-07-21T11:46:03.342Z,1.30
2017-07-21T11:48:30.364Z,1.03
2017-07-21T11:50:57.317Z,1.10
2017-07-21T11:53:25.223Z,1.10
2017-07-21T11:55:52.170Z,1.43
2017-07-21T11:58:19.128Z,1.13
2017-07-21T12:00:46.074Z,1.50
2017-07-21T12:03:13.807Z,1.77
2017-07-21T12:05:41.762Z,1.03
2017-07-21T12:08:08.729Z,0.80
2017-07-21T12:10:35.668Z,1.80
2017-07-21T12:13:02.657Z,1.47
2017-07-21T12:15:33.368Z,1.10
2017-07-21T12:18:00.347Z,1.00
2017-07-21T12:20:27.277Z,1.10
2017-07-21T12:22:55.049Z,1.30
2017-07-21T12:25:21.984Z,1.13
2017-07-21T12:27:50.694Z,1.30
2017-07-21T12:30:17.631Z,1.07
2017-07-21T12:32:44.566Z,1.40
2017-07-21T12:35:15.437Z,0.90
2017-07-21T12:37:43.322Z,1.00
2017-07-21T12:40:10.265Z,1.03
2017-07-21T12:42:37.219Z,1.43
2017-07-21T12:45:05.187Z,0.90
2017-07-21T12:47:32.154Z,1.30
2017-07-21T12:49:59.888Z,1.17
2017-07-21T12:52:26.925Z,1.03
2017-07-21T12:54:53.973Z,1.23
2017-07-21T12:57:21.949Z,1.40
2017-07-21T12:59:48.885Z,1.20
2017-07-21T13:02:15.935Z,1.10
2017-07-21T13:04:42.902Z,0.63
2017-07-21T13:07:12.932Z,0.90
2017-07-21T13:09:40.922Z,1.70
2017-07-21T13:12:07.869Z,0.83
2017-07-21T13:14:34.854Z,0.90
2017-07-21T13:17:01.807Z,0.70
2017-07-21T13:19:30.558Z,1.23
2017-07-21T13:21:58.464Z,1.27
2017-07-21T13:24:25.473Z,1.10
2017-07-21T13:26:52.409Z,2.17
2017-07-21T13:29:19.365Z,0.83
2017-07-21T13:31:46.318Z,1.10
2017-07-21T13:34:13.301Z,1.50
2017-07-21T13:36:40.261Z,0.70
2017-07-21T13:39:08.165Z,1.30
2017-07-21T13:41:40.371Z,1.00
2017-07-21T13:44:07.318Z,1.20
2017-07-21T13:46:35.022Z,1.00
2017-07-21T13:49:02.000Z,1.10
2017-07-21T13:51:30.440Z,1.67
2017-07-21T13:53:57.410Z,1.40
2017-07-21T13:56:25.386Z,1.00
2017-07-21T13:58:52.345Z,1.50
2017-07-21T14:01:19.288Z,1.00
2017-07-21T14:03:46.265Z,1.37
2017-07-21T14:06:13.213Z,0.93
2017-07-21T14:08:40.192Z,1.80
2017-07-21T14:11:07.135Z,1.30
2017-07-21T14:13:34.997Z,1.50
2017-07-21T14:16:01.971Z,0.83
2017-07-21T14:18:29.845Z,1.40
2017-07-21T14:20:56.824Z,1.13
2017-07-21T14:23:23.788Z,1.43
2017-07-21T14:25:50.968Z,0.73
2017-07-21T14:28:22.197Z,1.97
2017-07-21T14:30:49.134Z,1.00
2017-07-21T14:33:16.120Z,0.77
2017-07-21T14:35:43.055Z,1.00
2017-07-21T14:38:10.956Z,1.27
2017-07-21T14:40:43.473Z,0.60
2017-07-21T14:43:10.434Z,0.80
2017-07-21T14:45:41.238Z,0.70
2017-07-21T14:48:08.183Z,1.20
2017-07-21T14:50:35.150Z,0.90
2017-07-21T14:53:02.901Z,1.00
2017-07-21T14:55:29.858Z,0.70
2017-07-21T14:57:57.769Z,1.13
2017-07-21T15:00:24.733Z,1.00
2017-07-21T15:02:51.672Z,1.17
2017-07-21T15:05:18.705Z,0.70
2017-07-21T15:07:45.657Z,0.90
2017-07-21T15:10:12.649Z,0.77
2017-07-21T15:12:41.504Z,1.23
2017-07-21T15:15:08.489Z,1.23
2017-07-21T15:17:39.172Z,1.40
2017-07-21T15:20:06.136Z,0.90
2017-07-21T15:22:33.080Z,1.03
2017-07-21T15:25:00.025Z,0.90
2017-07-21T15:27:26.969Z,0.70
2017-07-21T15:29:53.906Z,2.03
2017-07-21T15:32:20.841Z,0.93
2017-07-21T15:34:47.807Z,1.27
2017-07-21T15:37:14.755Z,0.83
2017-07-21T15:39:42.668Z,0.90
2017-07-21T15:42:09.620Z,1.37
2017-07-21T15:44:36.600Z,1.00
2017-07-21T15:47:03.561Z,0.73
2017-07-21T15:49:33.542Z,0.80
2017-07-21T15:52:00.509Z,0.80
2017-07-21T15:54:27.483Z,0.87
2017-07-21T15:56:54.476Z,1.00
2017-07-21T15:59:21.409Z,1.10
2017-07-21T16:01:49.504Z,0.53
2017-07-21T16:04:16.457Z,0.80
2017-07-21T16:06:43.427Z,0.73
2017-07-21T16:09:11.356Z,0.70
2017-07-21T16:11:39.331Z,0.87
2017-07-21T16:14:07.272Z,0.97
2017-07-21T16:16:34.241Z,1.70
2017-07-21T16:19:01.177Z,1.30
2017-07-21T16:21:28.143Z,1.63
2017-07-21T16:23:55.086Z,1.73
2017-07-21T16:26:23.044Z,0.97
2017-07-21T16:28:49.965Z,0.60
2017-07-21T16:31:16.926Z,1.17
2017-07-21T16:33:43.867Z,1.13
2017-07-21T16:36:10.886Z,0.73
2017-07-21T16:38:39.789Z,0.90
2017-07-21T16:41:06.764Z,0.90
2017-07-21T16:43:33.752Z,1.03
2017-07-21T16:46:00.700Z,0.80
2017-07-21T16:48:27.666Z,1.13
2017-07-21T16:50:54.621Z,1.10
2017-07-21T16:53:22.469Z,1.10
2017-07-21T16:55:49.451Z,0.90
2017-07-21T16:58:16.473Z,1.13
2017-07-21T17:00:43.404Z,1.00
2017-07-21T17:03:10.357Z,1.20
2017-07-21T17:05:38.235Z,1.47
2017-07-21T17:08:06.211Z,1.20
2017-07-21T17:10:33.166Z,1.03
2017-07-21T17:13:01.133Z,0.90
2017-07-21T17:15:29.092Z,0.90
2017-07-21T17:17:56.056Z,1.20
2017-07-21T17:20:22.993Z,0.73
2017-07-21T17:22:49.952Z,0.67
2017-07-21T17:25:16.887Z,0.97
2017-07-21T17:27:45.872Z,0.90
2017-07-21T17:30:13.832Z,1.27
2017-07-21T17:32:41.805Z,1.20
2017-07-21T17:35:08.749Z,0.90
2017-07-21T17:37:35.685Z,1.10
2017-07-21T17:40:03.697Z,0.80
2017-07-21T17:42:30.628Z,1.10
2017-07-21T17:44:57.576Z,1.93
2017-07-21T17:47:24.508Z,1.97
2017-07-21T17:49:51.458Z,1.30
2017-07-21T17:52:19.287Z,1.03
2017-07-21T17:54:47.177Z,1.60
2017-07-21T17:57:14.124Z,1.20
2017-07-21T17:59:41.101Z,1.00
2017-07-21T18:02:08.039Z,1.23
2017-07-21T18:04:34.992Z,1.40
2017-07-21T18:07:01.920Z,1.40
2017-07-21T18:09:29.860Z,1.30
2017-07-21T18:11:56.792Z,1.80
2017-07-21T18:14:23.741Z,1.40
2017-07-21T18:16:51.697Z,1.20
2017-07-21T18:19:18.662Z,1.63
2017-07-21T18:21:46.524Z,1.67
2017-07-21T18:24:14.498Z,1.43
2017-07-21T18:26:41.434Z,1.60
2017-07-21T18:29:09.424Z,1.80
2017-07-21T18:31:36.360Z,1.10
2017-07-21T18:34:03.325Z,1.17
2017-07-21T18:36:30.244Z,1.30
2017-07-21T18:38:57.208Z,1.20
2017-07-21T18:41:25.143Z,1.10
2017-07-21T18:43:52.117Z,1.30
2017-07-21T18:46:19.072Z,1.73
2017-07-21T18:48:46.008Z,1.50
2017-07-21T18:51:12.970Z,1.77
2017-07-21T18:53:39.913Z,2.03
2017-07-21T18:56:06.886Z,3.63
2017-07-21T18:58:33.828Z,1.53
2017-07-21T19:01:01.533Z,3.27
2017-07-21T19:03:28.492Z,2.40
2017-07-21T19:05:55.462Z,1.87
2017-07-21T19:08:22.377Z,2.20
2017-07-21T19:10:49.296Z,1.97
2017-07-21T19:13:16.228Z,1.33
2017-07-21T19:15:43.155Z,1.80
2017-07-21T19:18:10.859Z,2.00
2017-07-21T19:20:37.789Z,1.30
2017-07-21T19:23:04.737Z,1.90
2017-07-21T19:25:31.674Z,1.93
2017-07-21T19:27:59.552Z,1.50
2017-07-21T19:30:26.534Z,2.17
2017-07-21T19:32:53.500Z,1.60
2017-07-21T19:35:23.179Z,2.07
2017-07-21T19:37:50.173Z,2.17
2017-07-21T19:40:17.105Z,2.87
2017-07-21T19:42:45.017Z,3.00
2017-07-21T19:45:11.950Z,2.70
2017-07-21T19:47:40.809Z,2.70
2017-07-21T19:50:08.514Z,2.80
2017-07-21T19:52:35.460Z,3.23
2017-07-21T19:55:06.136Z,3.20
2017-07-21T19:57:33.883Z,3.67
2017-07-21T20:00:00.818Z,4.53
2017-07-21T20:02:27.804Z,5.60
2017-07-21T20:04:54.756Z,6.00
2017-07-21T20:07:21.873Z,4.37
2017-07-21T20:09:48.808Z,3.03
2017-07-21T20:12:15.753Z,3.60
2017-07-21T20:14:42.742Z,4.27
2017-07-21T20:17:10.621Z,3.10
2017-07-21T20:19:37.604Z,2.27
2017-07-21T20:22:04.532Z,1.93
2017-07-21T20:24:31.498Z,2.67
2017-07-21T20:26:59.453Z,2.17
2017-07-21T20:29:26.377Z,2.43
2017-07-21T20:31:53.337Z,2.00
2017-07-21T20:34:20.273Z,2.30
2017-07-21T20:36:50.637Z,2.50
2017-07-21T20:39:17.598Z,2.73
2017-07-21T20:41:46.325Z,3.10
2017-07-21T20:44:13.277Z,2.80
2017-07-21T20:46:40.198Z,2.30
2017-07-21T20:49:07.150Z,2.63
2017-07-21T20:51:34.085Z,1.73
2017-07-21T20:54:01.964Z,2.17
2017-07-21T20:56:28.926Z,3.03
2017-07-21T20:58:55.896Z,2.30
2017-07-21T21:01:22.888Z,2.90
2017-07-21T21:03:50.782Z,2.13
2017-07-21T21:06:17.750Z,2.30
2017-07-21T21:08:44.716Z,2.93
2017-07-21T21:11:11.671Z,3.90
2017-07-21T21:13:38.633Z,3.23
2017-07-21T21:16:05.584Z,2.13
2017-07-21T21:18:32.561Z,2.30
2017-07-21T21:21:00.436Z,2.20
2017-07-21T21:23:27.629Z,1.90
2017-07-21T21:25:54.569Z,2.07
2017-07-21T21:28:21.518Z,1.97
2017-07-21T21:30:48.472Z,3.23
2017-07-21T21:33:16.481Z,2.43
2017-07-21T21:35:44.198Z,2.70
2017-07-21T21:38:11.146Z,2.27
2017-07-21T21:40:38.109Z,2.77
2017-07-21T21:43:05.081Z,2.50
2017-07-21T21:45:32.010Z,2.40
2017-07-21T21:47:59.731Z,2.63
2017-07-21T21:50:26.721Z,3.23
2017-07-21T21:52:54.489Z,2.70
2017-07-21T21:55:24.288Z,3.00
2017-07-21T21:57:51.268Z,2.13
2017-07-21T22:00:20.205Z,2.40
2017-07-21T22:02:47.250Z,2.50
2017-07-21T22:05:14.224Z,2.80
2017-07-21T22:07:42.878Z,2.83
2017-07-21T22:10:09.899Z,2.10
2017-07-21T22:12:36.911Z,2.83
2017-07-21T22:15:16.104Z,3.43
2017-07-21T22:17:43.051Z,2.37
2017-07-21T22:20:10.041Z,2.37
2017-07-21T22:22:37.079Z,2.83
2017-07-21T22:25:04.813Z,2.90
2017-07-21T22:27:32.802Z,2.67
2017-07-21T22:30:00.514Z,2.73
2017-07-21T22:32:27.450Z,2.60
2017-07-21T22:34:54.399Z,2.80
2017-07-21T22:37:21.333Z,2.87
2017-07-21T22:39:49.240Z,2.43
2017-07-21T22:42:16.222Z,2.33
2017-07-21T22:44:43.934Z,3.77
2017-07-21T22:47:10.901Z,3.23
2017-07-21T22:49:37.860Z,3.10
2017-07-21T22:52:05.590Z,3.00
2017-07-21T22:54:32.528Z,2.70
2017-07-21T22:57:00.519Z,3.60
2017-07-21T22:59:27.472Z,2.70
2017-07-21T23:01:54.466Z,2.47
2017-07-21T23:04:21.436Z,2.50
2017-07-21T23:06:48.459Z,3.37
2017-07-21T23:09:15.392Z,3.60
2017-07-21T23:11:44.318Z,2.47
2017-07-21T23:14:11.541Z,3.40
2017-07-21T23:16:38.459Z,3.57
2017-07-21T23:19:05.397Z,3.37
2017-07-21T23:21:33.137Z,2.97
2017-07-21T23:24:00.157Z,3.07
2017-07-21T23:26:28.146Z,3.60
2017-07-21T23:28:55.116Z,3.17
2017-07-21T23:31:22.841Z,3.60
2017-07-21T23:33:50.730Z,4.47
2017-07-21T23:36:18.630Z,3.20
2017-07-21T23:38:45.575Z,4.43
2017-07-21T23:41:12.491Z,3.00
2017-07-21T23:43:41.442Z,3.40
2017-07-21T23:46:09.507Z,3.10
2017-07-21T23:48:36.553Z,3.50
2017-07-21T23:51:03.525Z,3.47
2017-07-21T23:53:32.514Z,3.17
2017-07-21T23:56:00.372Z,3.20
2017-07-21T23:58:27.417Z,2.83
